createdAt,value
2019-04-01T00:00:34.063Z,4.83
2019-04-01T00:01:44.174Z,4.86
2019-04-01T00:02:54.283Z,4.85
2019-04-01T00:04:04.401Z,4.78
2019-04-01T00:05:14.576Z,4.85
2019-04-01T00:06:24.735Z,4.81
2019-04-01T00:07:34.841Z,4.83
2019-04-01T00:08:45.039Z,4.8
2019-04-01T00:09:55.126Z,4.74
2019-04-01T00:11:05.250Z,4.7
2019-04-01T00:12:15.351Z,4.63
2019-04-01T00:13:25.512Z,4.63
2019-04-01T00:14:35.800Z,4.71
2019-04-01T00:15:45.895Z,4.71
2019-04-01T00:16:56.002Z,4.67
2019-04-01T00:18:05.838Z,4.77
2019-04-01T00:19:15.960Z,4.75
2019-04-01T00:20:26.061Z,4.77
2019-04-01T00:21:36.200Z,4.62
2019-04-01T00:22:50.291Z,4.68
2019-04-01T00:24:00.900Z,4.8
2019-04-01T00:25:11.015Z,4.78
2019-04-01T00:26:21.132Z,4.8
2019-04-01T00:27:31.231Z,4.7
2019-04-01T00:28:41.367Z,4.81
2019-04-01T00:29:51.486Z,4.68
2019-04-01T00:31:01.590Z,4.77
2019-04-01T00:32:11.784Z,4.73
2019-04-01T00:33:21.917Z,4.77
2019-04-01T00:34:32.098Z,4.74
2019-04-01T00:35:42.243Z,4.8
2019-04-01T00:36:52.425Z,4.73
2019-04-01T00:38:02.617Z,4.77
2019-04-01T00:39:12.710Z,4.6
2019-04-01T00:40:22.805Z,4.71
2019-04-01T00:41:32.924Z,4.68
2019-04-01T00:42:42.769Z,4.68
2019-04-01T00:43:52.861Z,4.67
2019-04-01T00:45:02.804Z,4.7
2019-04-01T00:46:12.918Z,4.65
2019-04-01T00:47:23.021Z,4.7
2019-04-01T00:48:33.116Z,4.68
2019-04-01T00:49:43.243Z,4.59
2019-04-01T00:50:53.360Z,4.6
2019-04-01T00:52:03.493Z,4.52
2019-04-01T00:53:13.602Z,4.49
2019-04-01T00:54:25.788Z,4.46
2019-04-01T00:55:35.899Z,4.4
2019-04-01T00:56:46.023Z,4.38
2019-04-01T00:57:55.930Z,4.27
2019-04-01T00:59:06.036Z,4.38
2019-04-01T01:00:15.884Z,4.46
2019-04-01T01:01:26.005Z,4.43
2019-04-01T01:02:35.867Z,4.46
2019-04-01T01:03:45.992Z,4.4
2019-04-01T01:04:56.112Z,4.28
2019-04-01T01:06:06.222Z,4.25
2019-04-01T01:07:15.999Z,4.27
2019-04-01T01:08:26.085Z,4.18
2019-04-01T01:09:36.248Z,4.16
2019-04-01T01:10:46.677Z,4.18
2019-04-01T01:11:56.270Z,4.12
2019-04-01T01:13:06.379Z,4.11
2019-04-01T01:14:16.511Z,4.16
2019-04-01T01:15:26.649Z,4.2
2019-04-01T01:16:36.788Z,4.2
2019-04-01T01:17:46.911Z,4.15
2019-04-01T01:18:57.013Z,4.15
2019-04-01T01:20:07.118Z,4.12
2019-04-01T01:21:16.979Z,3.98
2019-04-01T01:22:27.064Z,3.97
2019-04-01T01:23:37.158Z,3.95
2019-04-01T01:24:47.284Z,4
2019-04-01T01:25:57.387Z,4
2019-04-01T01:27:07.507Z,3.94
2019-04-01T01:28:17.617Z,3.98
2019-04-01T01:29:27.728Z,3.86
2019-04-01T01:30:37.824Z,3.83
2019-04-01T01:31:47.930Z,3.93
2019-04-01T01:32:58.031Z,3.9
2019-04-01T01:34:08.127Z,3.87
2019-04-01T01:35:18.254Z,3.83
2019-04-01T01:36:28.350Z,3.94
2019-04-01T01:37:38.447Z,3.98
2019-04-01T01:38:48.575Z,3.9
2019-04-01T01:39:58.682Z,3.95
2019-04-01T01:41:08.796Z,3.85
2019-04-01T01:42:19.108Z,3.79
2019-04-01T01:43:29.207Z,3.68
2019-04-01T01:44:39.305Z,3.72
2019-04-01T01:45:49.407Z,3.62
2019-04-01T01:46:59.502Z,3.69
2019-04-01T01:48:09.608Z,3.69
2019-04-01T01:49:19.781Z,3.76
2019-04-01T01:50:29.885Z,3.75
2019-04-01T01:51:39.978Z,3.73
2019-04-01T01:52:50.084Z,3.52
2019-04-01T01:54:00.188Z,3.54
2019-04-01T01:55:10.315Z,3.55
2019-04-01T01:56:20.158Z,3.64
2019-04-01T01:57:30.254Z,3.67
2019-04-01T01:58:40.572Z,3.67
2019-04-01T01:59:50.668Z,3.67
2019-04-01T02:01:00.777Z,3.65
2019-04-01T02:02:10.881Z,3.64
2019-04-01T02:03:20.981Z,3.69
2019-04-01T02:04:31.112Z,3.73
2019-04-01T02:05:41.232Z,3.69
2019-04-01T02:06:51.344Z,3.77
2019-04-01T02:08:01.454Z,3.79
2019-04-01T02:09:11.558Z,3.76
2019-04-01T02:10:21.657Z,3.72
2019-04-01T02:11:31.976Z,3.65
2019-04-01T02:12:42.079Z,3.65
2019-04-01T02:13:52.182Z,3.65
2019-04-01T02:15:02.276Z,3.72
2019-04-01T02:16:12.409Z,3.55
2019-04-01T02:17:22.532Z,3.68
2019-04-01T02:18:32.643Z,3.72
2019-04-01T02:19:42.806Z,3.61
2019-04-01T02:20:52.914Z,3.55
2019-04-01T02:22:03.027Z,3.4
2019-04-01T02:23:13.155Z,3.36
2019-04-01T02:24:23.262Z,3.39
2019-04-01T02:25:33.368Z,3.39
2019-04-01T02:26:43.483Z,3.29
2019-04-01T02:27:53.634Z,3.29
2019-04-01T02:29:04.474Z,3.28
2019-04-01T02:30:14.373Z,3.31
2019-04-01T02:31:24.529Z,3.32
2019-04-01T02:32:34.672Z,3.25
2019-04-01T02:33:44.819Z,3.21
2019-04-01T02:34:54.985Z,3.28
2019-04-01T02:36:05.104Z,3.26
2019-04-01T02:37:15.225Z,3.21
2019-04-01T02:38:25.571Z,3.21
2019-04-01T02:39:35.689Z,3.15
2019-04-01T02:40:46.021Z,3.1
2019-04-01T02:41:56.146Z,3.06
2019-04-01T02:43:06.258Z,3.1
2019-04-01T02:44:16.363Z,3.1
2019-04-01T02:45:26.467Z,3.21
2019-04-01T02:46:36.580Z,3.22
2019-04-01T02:47:46.692Z,3.26
2019-04-01T02:48:56.805Z,3.32
2019-04-01T02:50:06.958Z,3.29
2019-04-01T02:51:17.144Z,3.34
2019-04-01T02:52:27.267Z,3.28
2019-04-01T02:53:37.600Z,3.42
2019-04-01T02:54:47.818Z,3.36
2019-04-01T02:55:57.992Z,3.37
2019-04-01T02:57:08.155Z,3.39
2019-04-01T02:58:18.265Z,3.43
2019-04-01T02:59:28.371Z,3.42
2019-04-01T03:00:38.479Z,3.43
2019-04-01T03:01:48.592Z,3.39
2019-04-01T03:02:58.705Z,3.4
2019-04-01T03:04:08.932Z,3.25
2019-04-01T03:05:19.076Z,3.28
2019-04-01T03:06:29.187Z,3.24
2019-04-01T03:07:39.437Z,3.31
2019-04-01T03:08:49.535Z,3.26
2019-04-01T03:09:59.290Z,3.26
2019-04-01T03:11:13.227Z,3.31
2019-04-01T03:12:23.371Z,3.29
2019-04-01T03:13:33.519Z,3.28
2019-04-01T03:14:43.633Z,3.29
2019-04-01T03:15:53.756Z,3.16
2019-04-01T03:17:03.863Z,3.18
2019-04-01T03:18:13.981Z,3.11
2019-04-01T03:19:24.115Z,3.15
2019-04-01T03:20:34.360Z,3.07
2019-04-01T03:21:44.468Z,3.15
2019-04-01T03:22:54.351Z,3.1
2019-04-01T03:24:04.129Z,3.04
2019-04-01T03:25:14.230Z,3.04
2019-04-01T03:26:24.137Z,3.06
2019-04-01T03:27:34.264Z,3.06
2019-04-01T03:28:44.398Z,3.04
2019-04-01T03:29:54.534Z,3.08
2019-04-01T03:31:04.666Z,3.11
2019-04-01T03:32:14.858Z,3.08
2019-04-01T03:33:25.035Z,3.08
2019-04-01T03:34:35.197Z,3
2019-04-01T03:35:45.508Z,3.04
2019-04-01T03:36:55.628Z,2.96
2019-04-01T03:38:05.865Z,3.08
2019-04-01T03:39:16.007Z,3
2019-04-01T03:40:26.117Z,2.97
2019-04-01T03:41:36.232Z,2.89
2019-04-01T03:42:46.543Z,2.89
2019-04-01T03:43:56.666Z,2.79
2019-04-01T03:45:06.907Z,2.79
2019-04-01T03:46:17.235Z,2.74
2019-04-01T03:47:27.552Z,2.73
2019-04-01T03:48:37.667Z,2.73
2019-04-01T03:49:47.780Z,2.59
2019-04-01T03:50:57.900Z,2.7
2019-04-01T03:52:12.614Z,2.7
2019-04-01T03:53:22.790Z,2.69
2019-04-01T03:54:32.924Z,2.66
2019-04-01T03:55:43.041Z,2.6
2019-04-01T03:56:53.155Z,2.63
2019-04-01T03:58:03.398Z,2.51
2019-04-01T03:59:13.513Z,2.49
2019-04-01T04:00:23.728Z,2.48
2019-04-01T04:01:35.513Z,2.49
2019-04-01T04:02:45.632Z,2.55
2019-04-01T04:03:55.757Z,2.64
2019-04-01T04:05:05.677Z,2.63
2019-04-01T04:06:15.808Z,2.63
2019-04-01T04:07:25.909Z,2.6
2019-04-01T04:08:36.023Z,2.6
2019-04-01T04:09:46.149Z,2.64
2019-04-01T04:10:56.254Z,2.67
2019-04-01T04:12:06.379Z,2.56
2019-04-01T04:13:16.498Z,2.64
2019-04-01T04:14:26.619Z,2.48
2019-04-01T04:15:36.484Z,2.56
2019-04-01T04:16:46.760Z,2.55
2019-04-01T04:17:57.054Z,2.52
2019-04-01T04:19:07.171Z,2.46
2019-04-01T04:20:17.315Z,2.45
2019-04-01T04:21:28.923Z,2.42
2019-04-01T04:22:39.055Z,2.34
2019-04-01T04:23:49.376Z,2.45
2019-04-01T04:24:59.506Z,2.42
2019-04-01T04:26:09.650Z,2.48
2019-04-01T04:27:19.776Z,2.44
2019-04-01T04:28:29.912Z,2.44
2019-04-01T04:29:40.046Z,2.46
2019-04-01T04:30:49.924Z,2.51
2019-04-01T04:32:00.061Z,2.45
2019-04-01T04:33:10.160Z,2.31
2019-04-01T04:34:20.030Z,2.39
2019-04-01T04:35:29.882Z,2.3
2019-04-01T04:36:39.389Z,2.34
2019-04-01T04:37:49.507Z,2.33
2019-04-01T04:38:59.627Z,2.3
2019-04-01T04:40:09.736Z,2.3
2019-04-01T04:41:19.856Z,2.31
2019-04-01T04:42:29.968Z,2.26
2019-04-01T04:43:40.095Z,2.28
2019-04-01T04:44:50.201Z,2.21
2019-04-01T04:46:00.533Z,2.24
2019-04-01T04:47:10.386Z,2.16
2019-04-01T04:48:20.495Z,2.18
2019-04-01T04:49:30.615Z,2.12
2019-04-01T04:50:40.717Z,2.18
2019-04-01T04:51:50.819Z,2.15
2019-04-01T04:53:00.924Z,2.1
2019-04-01T04:54:11.039Z,2.1
2019-04-01T04:55:21.147Z,2.06
2019-04-01T04:56:31.242Z,1.98
2019-04-01T04:57:41.376Z,2.03
2019-04-01T04:58:51.477Z,2.01
2019-04-01T05:00:01.345Z,2
2019-04-01T05:01:11.464Z,2
2019-04-01T05:02:24.385Z,2
2019-04-01T05:03:34.892Z,2.08
2019-04-01T05:04:45.015Z,2.13
2019-04-01T05:05:55.124Z,2.1
2019-04-01T05:07:04.902Z,2.18
2019-04-01T05:08:15.012Z,2.24
2019-04-01T05:09:25.138Z,2.24
2019-04-01T05:10:35.259Z,2.27
2019-04-01T05:11:45.369Z,2.26
2019-04-01T05:12:55.493Z,2.3
2019-04-01T05:14:05.598Z,2.34
2019-04-01T05:15:15.715Z,2.34
2019-04-01T05:16:25.820Z,2.3
2019-04-01T05:17:35.937Z,2.34
2019-04-01T05:18:46.058Z,2.41
2019-04-01T05:19:56.149Z,2.46
2019-04-01T05:21:06.257Z,2.34
2019-04-01T05:22:16.402Z,2.36
2019-04-01T05:23:26.516Z,2.46
2019-04-01T05:24:36.618Z,2.44
2019-04-01T05:25:46.718Z,2.48
2019-04-01T05:26:56.835Z,2.45
2019-04-01T05:28:07.183Z,2.48
2019-04-01T05:29:17.288Z,2.51
2019-04-01T05:30:27.405Z,2.51
2019-04-01T05:31:37.505Z,2.56
2019-04-01T05:32:47.615Z,2.55
2019-04-01T05:34:00.680Z,2.52
2019-04-01T05:35:10.797Z,2.55
2019-04-01T05:36:20.908Z,2.6
2019-04-01T05:37:30.697Z,2.64
2019-04-01T05:38:40.801Z,2.53
2019-04-01T05:39:50.841Z,2.69
2019-04-01T05:41:00.949Z,2.81
2019-04-01T05:42:10.841Z,2.77
2019-04-01T05:43:20.948Z,2.82
2019-04-01T05:44:31.070Z,2.85
2019-04-01T05:45:41.170Z,2.88
2019-04-01T05:46:51.266Z,2.85
2019-04-01T05:48:01.371Z,2.88
2019-04-01T05:49:11.480Z,2.92
2019-04-01T05:50:21.626Z,2.94
2019-04-01T05:51:31.757Z,3.04
2019-04-01T05:52:41.864Z,3.07
2019-04-01T05:53:52.008Z,3.11
2019-04-01T05:55:02.109Z,3.21
2019-04-01T05:56:14.406Z,3.28
2019-04-01T05:57:24.509Z,3.34
2019-04-01T05:58:34.620Z,3.42
2019-04-01T05:59:44.725Z,3.42
2019-04-01T06:00:54.832Z,3.44
2019-04-01T06:02:04.961Z,3.4
2019-04-01T06:03:15.063Z,3.47
2019-04-01T06:04:25.195Z,3.42
2019-04-01T06:05:35.367Z,3.37
2019-04-01T06:06:48.680Z,3.5
2019-04-01T06:07:59.028Z,3.44
2019-04-01T06:09:09.129Z,3.55
2019-04-01T06:10:19.238Z,3.58
2019-04-01T06:11:29.370Z,3.54
2019-04-01T06:12:39.112Z,3.59
2019-04-01T06:13:49.226Z,3.58
2019-04-01T06:14:59.334Z,3.68
2019-04-01T06:16:09.438Z,3.72
2019-04-01T06:17:19.190Z,3.73
2019-04-01T06:18:29.302Z,3.76
2019-04-01T06:19:39.480Z,3.73
2019-04-01T06:20:49.601Z,3.67
2019-04-01T06:21:59.712Z,3.72
2019-04-01T06:23:09.827Z,3.57
2019-04-01T06:24:20.038Z,3.57
2019-04-01T06:25:32.529Z,3.58
2019-04-01T06:26:42.650Z,3.5
2019-04-01T06:27:52.763Z,3.52
2019-04-01T06:29:02.907Z,3.37
2019-04-01T06:30:13.043Z,3.52
2019-04-01T06:31:23.155Z,3.59
2019-04-01T06:32:33.280Z,3.68
2019-04-01T06:33:43.458Z,3.73
2019-04-01T06:34:58.034Z,3.73
2019-04-01T06:36:08.202Z,3.73
2019-04-01T06:37:18.457Z,3.75
2019-04-01T06:38:28.584Z,3.69
2019-04-01T06:39:38.699Z,3.72
2019-04-01T06:40:48.832Z,3.75
2019-04-01T06:41:58.938Z,3.72
2019-04-01T06:43:12.634Z,3.73
2019-04-01T06:44:22.761Z,3.69
2019-04-01T06:45:32.861Z,3.79
2019-04-01T06:46:42.966Z,3.72
2019-04-01T06:47:52.819Z,3.79
2019-04-01T06:49:03.025Z,3.82
2019-04-01T06:50:13.185Z,3.82
2019-04-01T06:51:23.292Z,3.8
2019-04-01T06:52:33.416Z,3.83
2019-04-01T06:53:43.503Z,3.87
2019-04-01T06:54:53.616Z,3.87
2019-04-01T06:56:03.733Z,3.8
2019-04-01T06:57:13.903Z,3.8
2019-04-01T06:58:24.011Z,3.79
2019-04-01T06:59:34.124Z,3.8
2019-04-01T07:00:44.254Z,3.76
2019-04-01T07:01:54.379Z,3.77
2019-04-01T07:03:04.475Z,3.72
2019-04-01T07:04:14.586Z,3.72
2019-04-01T07:05:24.692Z,3.76
2019-04-01T07:06:34.788Z,3.68
2019-04-01T07:07:44.993Z,3.67
2019-04-01T07:08:55.094Z,3.65
2019-04-01T07:10:05.318Z,3.69
2019-04-01T07:11:15.282Z,3.76
2019-04-01T07:12:25.494Z,3.75
2019-04-01T07:13:35.635Z,3.79
2019-04-01T07:14:47.890Z,3.83
2019-04-01T07:15:58.000Z,3.86
2019-04-01T07:17:22.602Z,3.87
2019-04-01T07:18:32.790Z,3.91
2019-04-01T07:19:42.901Z,3.97
2019-04-01T07:20:53.025Z,3.93
2019-04-01T07:22:03.135Z,4.01
2019-04-01T07:23:13.261Z,4.03
2019-04-01T07:24:23.363Z,4.04
2019-04-01T07:25:36.562Z,3.9
2019-04-01T07:26:46.668Z,4.01
2019-04-01T07:27:56.782Z,4.01
2019-04-01T07:29:06.903Z,4.05
2019-04-01T07:30:17.020Z,4.09
2019-04-01T07:31:27.198Z,4.19
2019-04-01T07:32:37.317Z,4.12
2019-04-01T07:33:47.421Z,4.04
2019-04-01T07:34:57.542Z,4.08
2019-04-01T07:36:07.665Z,4.05
2019-04-01T07:37:17.811Z,4.01
2019-04-01T07:38:27.922Z,4
2019-04-01T07:39:38.031Z,3.94
2019-04-01T07:40:48.127Z,4
2019-04-01T07:41:58.310Z,3.98
2019-04-01T07:43:08.433Z,4.16
2019-04-01T07:44:20.449Z,4.16
2019-04-01T07:45:30.548Z,4.19
2019-04-01T07:46:40.650Z,4.3
2019-04-01T07:47:54.154Z,4.46
2019-04-01T07:49:04.367Z,4.55
2019-04-01T07:50:17.272Z,4.55
2019-04-01T07:51:27.523Z,4.8
2019-04-01T07:52:37.637Z,4.92
2019-04-01T07:53:47.751Z,5.16
2019-04-01T07:54:57.860Z,5.29
2019-04-01T07:56:08.268Z,5.46
2019-04-01T07:57:18.376Z,5.47
2019-04-01T07:58:28.491Z,5.68
2019-04-01T07:59:38.593Z,5.86
2019-04-01T08:00:48.350Z,6.12
2019-04-01T08:01:58.458Z,6.28
2019-04-01T08:03:08.770Z,6.49
2019-04-01T08:04:18.885Z,7.03
2019-04-01T08:05:31.022Z,8.21
2019-04-01T08:06:41.138Z,9.3
2019-04-01T08:07:51.014Z,10.33
2019-04-01T08:09:01.130Z,11.13
2019-04-01T08:10:11.247Z,11.76
2019-04-01T08:11:21.402Z,12.29
2019-04-01T08:12:32.934Z,12.77
2019-04-01T08:13:43.038Z,13.03
2019-04-01T08:14:53.150Z,13.31
2019-04-01T08:16:03.270Z,13.48
2019-04-01T08:17:13.146Z,13.73
2019-04-01T08:18:23.279Z,13.84
2019-04-01T08:19:33.404Z,13.89
2019-04-01T08:20:43.266Z,14.14
2019-04-01T08:21:57.125Z,14.16
2019-04-01T08:23:07.230Z,14.24
2019-04-01T08:24:17.344Z,14.52
2019-04-01T08:25:27.491Z,14.78
2019-04-01T08:26:37.604Z,15.32
2019-04-01T08:27:47.709Z,15.82
2019-04-01T08:28:57.892Z,16.27
2019-04-01T08:30:08.080Z,16.29
2019-04-01T08:31:18.474Z,16.21
2019-04-01T08:32:28.595Z,16.11
2019-04-01T08:33:38.786Z,15.84
2019-04-01T08:34:49.115Z,15.68
2019-04-01T08:35:59.230Z,15.58
2019-04-01T08:37:09.355Z,15.61
2019-04-01T08:38:22.168Z,15.66
2019-04-01T08:39:32.284Z,15.7
2019-04-01T08:40:43.390Z,15.68
2019-04-01T08:41:56.173Z,15.8
2019-04-01T08:43:07.116Z,15.84
2019-04-01T08:44:19.802Z,16.02
2019-04-01T08:45:31.907Z,16.16
2019-04-01T08:46:43.598Z,16.36
2019-04-01T08:47:55.834Z,16.53
